Alithini — 9HA4311 — position and weather

sailwx.info

Track history (hours):
 
Tides and Currents Weather Stations Pressure Air Temp Water Temp Dewpoint Dewpoint Depression Visibility Wind Speed Wind Dir Waves Ship Positions

Alithini

Last reported at 2018-Apr-20 21:14 UTC. Time now 2018-Jun-25 19:07 UTC.
Position N 07°59' W 014°29'.
Warning: this ship's position is months out of date.

Length 190 m; draft 10.5 m.

Type: Cargo ship. MMSI: 249608000.

Date/timePositionNaut miles runAvg speedWind from/ knotsBaromVisibWave heightAir tempDewpointWater temp
2018-Apr-20 21:14N 07°59' W 014°29'313.0
2018-Apr-20 21:00N 08°01' W 014°31'612.9
2018-Apr-20 20:31N 08°05' W 014°36'1913.2
2018-Apr-20 19:04N 08°18' W 014°50'113.2
2018-Apr-20 19:00N 08°19' W 014°50'1113.1
2018-Apr-20 18:12N 08°26' W 014°58'213.2
2018-Apr-20 18:01N 08°27' W 015°00'713.3
2018-Apr-20 17:30N 08°32' W 015°05'713.3
2018-Apr-20 17:00N 08°37' W 015°10'713.2
2018-Apr-20 16:26N 08°42' W 015°15'713.2
2018-Apr-20 15:57N 08°46' W 015°20'613.0
2018-Apr-20 15:31N 08°50' W 015°25'713.2
2018-Apr-20 15:01N 08°54' W 015°29'713.4
2018-Apr-20 14:31N 08°59' W 015°34'713.5
2018-Apr-20 14:00N 09°04' W 015°39'  
2018-Apr-16 18:16N 27°52' W 015°16'414.1
2018-Apr-16 18:00N 27°55' W 015°16'612.9
2018-Apr-16 17:30N 28°02' W 015°17'4 8.2
2018-Apr-16 17:00N 28°06' W 015°19'4 7.4
2018-Apr-16 16:30N 28°06' W 015°23'1 1.1
2018-Apr-16 15:59N 28°06' W 015°24'0 0.1
2018-Apr-16 15:24N 28°06' W 015°24'0 0.0
2018-Apr-16 14:54N 28°06' W 015°24'0 0.0
2018-Apr-16 14:29N 28°06' W 015°24'0 0.0
2018-Apr-16 13:57N 28°06' W 015°24'0 0.0
2018-Apr-16 13:25N 28°06' W 015°24'0 0.0
2018-Apr-16 13:00N 28°06' W 015°24'0 0.0
2018-Apr-16 12:28N 28°06' W 015°24'0 0.0
2018-Apr-16 12:00N 28°06' W 015°24'0 0.0
2018-Apr-16 11:30N 28°06' W 015°24'0 0.0
2018-Apr-16 11:00N 28°06' W 015°24'0 0.0
2018-Apr-16 10:23N 28°06' W 015°24'0 0.0
2018-Apr-16 09:51N 28°06' W 015°24'0 0.0
2018-Apr-16 09:28N 28°06' W 015°24'0 0.0
2018-Apr-16 09:00N 28°06' W 015°24'0 0.0
2018-Apr-16 08:20N 28°06' W 015°24'0 0.0
2018-Apr-16 07:50N 28°06' W 015°24'0 0.0
2018-Apr-16 07:24N 28°06' W 015°24'0 0.0
2018-Apr-16 06:47N 28°06' W 015°24'0 0.1
2018-Apr-16 06:29N 28°06' W 015°24'0 0.3
2018-Apr-16 05:59N 28°06' W 015°24'1 1.2
2018-Apr-16 05:30N 28°06' W 015°23'1 2.4
2018-Apr-16 05:00N 28°07' W 015°22'4 8.5
2018-Apr-16 04:30N 28°08' W 015°17'4 8.5
2018-Apr-16 04:00N 28°10' W 015°13'5 9.7
2018-Apr-16 03:30N 28°11' W 015°08'712.5
2018-Apr-16 02:58N 28°15' W 015°01'613.5
2018-Apr-16 02:30N 28°21' W 014°60'713.4
2018-Apr-16 02:00N 28°28' W 015°02'913.1
2018-Apr-16 01:21N 28°35' W 014°57'  
2018-Apr-13 17:10N 35°59' W 005°31'2 9.1
2018-Apr-13 16:59N 35°59' W 005°29'5 9.5
2018-Apr-13 16:27N 36°01' W 005°23'4 9.6
2018-Apr-13 16:00N 36°02' W 005°18'  
Track history (hours):
 
Tides and Currents Weather Stations Pressure Air Temp Water Temp Dewpoint Dewpoint Depression Visibility Wind Speed Wind Dir Waves Ship Positions

Alithini

Last reported at 2018-Apr-20 21:14 UTC. Time now 2018-Jun-25 19:07 UTC.
Position N 07°59' W 014°29'.
Warning: this ship's position is months out of date.

Length 190 m; draft 10.5 m.

Type: Cargo ship. MMSI: 249608000.

Date/timePositionNaut miles runAvg speedWind from/ knotsBaromVisibWave heightAir tempDewpointWater temp
2018-Apr-20 21:14N 07°59' W 014°29'313.0
2018-Apr-20 21:00N 08°01' W 014°31'612.9
2018-Apr-20 20:31N 08°05' W 014°36'1913.2
2018-Apr-20 19:04N 08°18' W 014°50'113.2
2018-Apr-20 19:00N 08°19' W 014°50'1113.1
2018-Apr-20 18:12N 08°26' W 014°58'213.2
2018-Apr-20 18:01N 08°27' W 015°00'713.3
2018-Apr-20 17:30N 08°32' W 015°05'713.3
2018-Apr-20 17:00N 08°37' W 015°10'713.2
2018-Apr-20 16:26N 08°42' W 015°15'713.2
2018-Apr-20 15:57N 08°46' W 015°20'613.0
2018-Apr-20 15:31N 08°50' W 015°25'713.2
2018-Apr-20 15:01N 08°54' W 015°29'713.4
2018-Apr-20 14:31N 08°59' W 015°34'713.5
2018-Apr-20 14:00N 09°04' W 015°39'  
2018-Apr-16 18:16N 27°52' W 015°16'414.1
2018-Apr-16 18:00N 27°55' W 015°16'612.9
2018-Apr-16 17:30N 28°02' W 015°17'4 8.2
2018-Apr-16 17:00N 28°06' W 015°19'4 7.4
2018-Apr-16 16:30N 28°06' W 015°23'1 1.1
2018-Apr-16 15:59N 28°06' W 015°24'0 0.1
2018-Apr-16 15:24N 28°06' W 015°24'0 0.0
2018-Apr-16 14:54N 28°06' W 015°24'0 0.0
2018-Apr-16 14:29N 28°06' W 015°24'0 0.0
2018-Apr-16 13:57N 28°06' W 015°24'0 0.0
2018-Apr-16 13:25N 28°06' W 015°24'0 0.0
2018-Apr-16 13:00N 28°06' W 015°24'0 0.0
2018-Apr-16 12:28N 28°06' W 015°24'0 0.0
2018-Apr-16 12:00N 28°06' W 015°24'0 0.0
2018-Apr-16 11:30N 28°06' W 015°24'0 0.0
2018-Apr-16 11:00N 28°06' W 015°24'0 0.0
2018-Apr-16 10:23N 28°06' W 015°24'0 0.0
2018-Apr-16 09:51N 28°06' W 015°24'0 0.0
2018-Apr-16 09:28N 28°06' W 015°24'0 0.0
2018-Apr-16 09:00N 28°06' W 015°24'0 0.0
2018-Apr-16 08:20N 28°06' W 015°24'0 0.0
2018-Apr-16 07:50N 28°06' W 015°24'0 0.0
2018-Apr-16 07:24N 28°06' W 015°24'0 0.0
2018-Apr-16 06:47N 28°06' W 015°24'0 0.1
2018-Apr-16 06:29N 28°06' W 015°24'0 0.3
2018-Apr-16 05:59N 28°06' W 015°24'1 1.2
2018-Apr-16 05:30N 28°06' W 015°23'1 2.4
2018-Apr-16 05:00N 28°07' W 015°22'4 8.5
2018-Apr-16 04:30N 28°08' W 015°17'4 8.5
2018-Apr-16 04:00N 28°10' W 015°13'5 9.7
2018-Apr-16 03:30N 28°11' W 015°08'712.5
2018-Apr-16 02:58N 28°15' W 015°01'613.5
2018-Apr-16 02:30N 28°21' W 014°60'713.4
2018-Apr-16 02:00N 28°28' W 015°02'913.1
2018-Apr-16 01:21N 28°35' W 014°57'  
2018-Apr-13 17:10N 35°59' W 005°31'2 9.1
2018-Apr-13 16:59N 35°59' W 005°29'5 9.5
2018-Apr-13 16:27N 36°01' W 005°23'4 9.6
2018-Apr-13 16:00N 36°02' W 005°18'  

Dump ship's entire track history